Latest Weather Observations for Moorabbin Airport

IDV60901

Issued at 11:31 pm EST Saturday 25 June 2022 (issued every 10 minutes, with the page automatically refreshed every 10 minutes)

About weather observations | Map of Melbourne area stations | Latest observations for Melbourne area | Other Formats
Station Details ID: 086077 Name: MOORABBIN AIRPORT Lat: -37.98 Lon: 145.10 Height: 12.1 m
Data from the previous 72 hours. | See also: Recent months at Moorabbin Airport
Date/Time
EST
Temp
°C
App
Temp
°C
Dew
Point
°C
Rel
Hum
%
Delta-T
°C
Wind Press
QNH
hPa
Press
MSL
hPa
Rain since
9am
mm
Dir  Spd
km/h
Gust
km/h
Spd
kts
Gust
kts
25/11:30pm 12.6 7.1 7.5 71 2.5 NNW 26 39 14 21 1020.4 1020.5 0.0
25/11:00pm 12.8 6.9 7.3 69 2.7 N 28 39 15 21 1020.3 1020.4 0.0
25/10:30pm 12.8 6.9 7.3 69 2.7 NNW 28 43 15 23 1020.2 1020.3 0.0
25/10:00pm 12.6 6.6 7.1 69 2.6 N 28 39 15 21 1019.9 1020.0 0.0
25/09:30pm 12.8 7.2 7.0 68 2.8 N 26 35 14 19 1019.9 1020.0 0.0
25/09:00pm 12.7 7.4 7.0 68 2.7 NNW 24 33 13 18 1019.9 1020.0 0.0
25/08:30pm 12.6 7.0 7.1 69 2.7 N 26 35 14 19 1019.7 1019.8 0.0
25/08:00pm 13.1 7.5 7.1 67 2.9 N 26 39 14 21 1019.7 1019.8 0.0
25/07:30pm 13.3 6.9 7.1 66 3.0 N 30 41 16 22 1019.5 1019.6 0.0
25/07:00pm 13.3 7.7 7.1 66 3.0 NNW 26 33 14 18 1019.2 1019.3 0.0
25/06:30pm 13.3 7.7 7.1 66 3.0 N 26 39 14 21 1018.8 1018.8 0.0
25/06:00pm 13.5 8.6 6.8 64 3.2 NNW 22 32 12 17 1018.6 1018.6 0.0
25/05:30pm 14.1 9.2 6.7 61 3.6 NNW 22 30 12 16 1018.8 1018.8 0.0
25/05:00pm 15.1 9.5 7.2 59 3.9 NNW 26 39 14 21 1018.5 1018.5 0.0
25/04:30pm 14.7 10.1 6.5 58 4.0 NNW 20 30 11 16 1018.5 1018.5 0.0
25/04:00pm 15.8 11.5 6.8 55 4.4 NNW 19 28 10 15 1018.6 1018.6 0.0
25/03:30pm 16.0 10.9 6.2 52 4.8 NNW 22 33 12 18 1018.6 1018.6 0.0
25/03:00pm 16.2 11.1 6.1 51 4.9 NNW 22 35 12 19 1018.5 1018.5 0.0
25/02:30pm 15.9 9.9 5.5 50 5.0 NNW 26 37 14 20 1018.3 1018.3 0.0
25/02:00pm 16.0 9.7 5.9 51 4.9 NW 28 39 15 21 1018.5 1018.5 0.0
25/01:30pm 15.8 10.3 6.0 52 4.7 NW 24 37 13 20 1018.7 1018.7 0.0
25/01:00pm 15.2 10.2 6.5 56 4.2 NW 22 35 12 19 1018.9 1018.9 0.0
25/12:30pm 15.1 8.9 6.1 55 4.3 NW 28 41 15 22 1019.0 1019.1 0.0
25/12:00pm 15.1 9.0 6.7 57 4.1 NNW 28 41 15 22 1019.0 1019.1 0.0
25/11:30am 14.8 8.8 6.9 59 3.9 NNW 28 43 15 23 1019.2 1019.3 0.0
25/11:00am 14.4 8.8 7.0 61 3.6 NNW 26 39 14 21 1019.6 1019.7 0.0
25/10:30am 13.3 8.0 6.9 65 3.1 NNW 24 33 13 18 1019.6 1019.7 0.0
25/10:00am 12.9 8.0 7.1 68 2.8 N 22 30 12 16 1019.7 1019.8 0.0
25/09:30am 11.8 6.9 6.7 71 2.4 N 22 30 12 16 1019.6 1019.7 0.0
25/09:00am 10.8 5.4 6.4 74 2.1 N 24 32 13 17 1019.0 1019.1 0.0
25/08:30am 10.6 6.0 6.4 75 2.0 N 20 26 11 14 1019.0 1019.1 0.0
25/08:00am 10.0 5.9 6.2 77 1.8 N 17 20 9 11 1018.8 1018.8 0.0
25/07:30am 9.7 5.9 5.9 77 1.7 N 15 19 8 10 1018.7 1018.7 0.0
25/07:00am 9.9 5.8 6.1 77 1.8 N 17 22 9 12 1018.3 1018.3 0.0
25/06:30am 9.8 5.3 6.0 77 1.8 N 19 24 10 13 1018.0 1018.0 0.0
25/06:00am 10.1 5.6 6.1 76 1.8 N 19 24 10 13 1017.7 1017.7 0.0
25/05:30am 10.4 6.3 6.2 75 2.0 N 17 24 9 13 1017.4 1017.4 0.0
25/05:00am 10.6 6.4 5.8 72 2.2 N 17 22 9 12 1017.2 1017.2 0.0
25/04:30am 10.7 7.3 5.9 72 2.2 N 13 17 7 9 1016.9 1016.9 0.0
25/04:00am 10.4 7.5 6.5 77 1.8 N 11 15 6 8 1016.9 1016.9 0.0
25/03:30am 9.7 6.1 6.6 81 1.4 N 15 17 8 9 1016.8 1016.8 0.0
25/03:00am 10.4 7.2 6.9 79 1.6 N 13 17 7 9 1017.1 1017.1 0.0
25/02:30am 10.9 7.8 7.2 78 1.8 N 13 19 7 10 1017.1 1017.1 0.0
25/02:00am 10.8 7.8 7.5 80 1.6 N 13 17 7 9 1017.0 1017.0 0.0
25/01:30am 11.0 7.2 7.5 79 1.7 N 17 20 9 11 1016.8 1016.8 0.0
25/01:00am 10.8 8.1 7.5 80 1.6 NNW 11 15 6 8 1016.9 1016.9 0.0
25/12:30am 10.4 8.1 7.5 82 1.4 N 9 11 5 6 1017.1 1017.1 0.0
25/12:00am 10.5 7.8 7.4 81 1.5 N 11 13 6 7 1017.2 1017.2 0.0
 
Date/Time
EST
Temp
°C
App
Temp
°C
Dew
Point
°C
Rel
Hum
%
Delta-T
°C
Wind Press
QNH
hPa
Press
MSL
hPa
Rain since
9am
mm
Dir  Spd
km/h
Gust
km/h
Spd
kts
Gust
kts
24/11:30pm 11.0 8.4 7.7 80 1.6 N 11 13 6 7 1017.3 1017.3 0.0
24/11:00pm 11.3 8.8 8.2 81 1.5 NNW 11 15 6 8 1017.3 1017.3 0.0
24/10:30pm 10.8 8.3 8.2 84 1.3 N 11 11 6 6 1017.3 1017.3 0.0
24/10:00pm 11.2 9.1 8.2 82 1.5 NNW 9 13 5 7 1017.4 1017.4 0.0
24/09:30pm 11.1 9.4 8.3 83 1.4 NW 7 9 4 5 1017.4 1017.4 0.0
24/09:00pm 10.9 8.4 8.1 83 1.4 NW 11 15 6 8 1017.2 1017.2 0.0
24/08:30pm 11.2 9.1 8.2 82 1.5 NNW 9 11 5 6 1017.1 1017.1 0.0
24/08:00pm 11.7 9.6 8.4 80 1.6 WNW 9 15 5 8 1017.2 1017.2 0.0
24/07:30pm 11.9 9.1 8.6 80 1.6 WNW 13 22 7 12 1017.2 1017.2 0.0
24/07:00pm 12.0 9.1 8.3 78 1.8 WNW 13 20 7 11 1016.9 1016.9 0.0
24/06:30pm 12.3 9.0 8.0 75 2.1 W 15 20 8 11 1016.5 1016.5 0.0
24/06:00pm 12.5 10.4 8.2 75 2.1 WNW 9 13 5 7 1016.1 1016.1 0.0
24/05:30pm 12.0 10.2 8.1 77 1.9 NW 7 11 4 6 1015.7 1015.7 0.0
24/05:00pm 13.0 11.4 8.1 72 2.4 WNW 6 9 3 5 1015.5 1015.5 0.0
24/04:30pm 13.8 11.3 8.2 69 2.8 WNW 11 17 6 9 1015.2 1015.2 0.0
24/04:00pm 14.3 10.9 7.6 64 3.3 WNW 15 22 8 12 1015.2 1015.2 0.0
24/03:30pm 14.3 10.8 7.4 63 3.4 W 15 20 8 11 1015.1 1015.1 0.0
24/03:00pm 13.3 8.7 8.2 71 2.5 W 22 32 12 17 1015.2 1015.2 0.0
24/02:30pm 14.7 11.7 7.7 63 3.5 WNW 13 19 7 10 1014.8 1014.8 0.0
24/02:00pm 15.5 11.8 8.0 61 3.8 WNW 17 24 9 13 1014.7 1014.7 0.0
24/01:30pm 15.3 11.2 8.5 64 3.4 WNW 20 30 11 16 1014.9 1014.9 0.0
24/01:00pm 14.6 10.9 9.4 71 2.7 WNW 19 28 10 15 1015.0 1015.0 0.0
24/12:30pm 14.4 10.7 9.6 73 2.5 NW 19 28 10 15 1015.0 1015.0 0.0
24/12:00pm 14.2 11.1 10.2 77 2.1 NW 17 24 9 13 1015.2 1015.2 0.0
24/11:30am 14.8 11.3 10.2 74 2.4 WNW 19 26 10 14 1015.4 1015.4 0.0
24/11:00am 13.4 10.3 10.4 82 1.6 WNW 17 28 9 15 1015.4 1015.4 0.0
24/10:30am 13.4 10.4 10.8 84 1.4 NW 17 26 9 14 1015.4 1015.4 0.0
24/10:00am 12.8 10.1 10.5 86 1.2 NW 15 24 8 13 1015.4 1015.4 0.0
24/09:30am 12.9 9.9 10.6 86 1.2 NW 17 24 9 13 1014.8 1014.8 0.0
24/09:00am 12.9 10.2 10.3 84 1.3 NW 15 20 8 11 1014.4 1014.4 5.0
24/08:30am 12.4 10.4 10.1 86 1.2 NNW 11 15 6 8 1014.0 1014.0 5.0
24/08:00am 12.0 9.2 9.9 87 1.1 NNW 15 19 8 10 1013.7 1013.7 5.0
24/07:30am 11.8 8.6 9.9 88 1.0 NNW 17 24 9 13 1013.2 1013.2 5.0
24/07:00am 11.7 8.2 10.1 90 0.8 NNW 19 26 10 14 1012.9 1012.9 5.0
24/06:30am 11.7 8.0 10.1 90 0.8 N 20 26 11 14 1012.5 1012.5 5.0
24/06:18am 11.6 7.5 10.0 90 0.8 N 22 28 12 15 1012.3 1012.3 5.0
24/06:00am 11.6 7.1 10.0 90 0.8 N 24 32 13 17 1012.1 1012.1 4.6
24/05:49am 11.8 8.1 10.0 89 0.9 NNW 20 28 11 15 1012.2 1012.2 4.0
24/05:30am 12.1 7.9 9.8 86 1.2 NNW 22 32 12 17 1011.7 1011.7 2.8
24/05:00am 12.4 8.6 9.8 84 1.3 NNW 20 28 11 15 1011.6 1011.6 1.6
24/04:30am 13.1 8.4 9.2 77 2.0 NNW 24 33 13 18 1011.6 1011.6 0.4
24/04:00am 13.7 8.9 9.0 73 2.4 NNW 24 35 13 19 1011.5 1011.5 0.0
24/03:30am 14.2 8.2 8.6 69 2.8 N 30 41 16 22 1011.6 1011.6 0.0
24/03:00am 14.6 8.9 8.5 67 3.1 NNW 28 41 15 22 1011.8 1011.8 0.0
24/02:30am 14.7 8.1 8.6 67 3.1 N 33 46 18 25 1012.2 1012.2 0.0
24/02:12am 14.8 8.2 8.5 66 3.2 N 33 52 18 28 1012.1 1012.1 0.0
24/02:00am 14.8 7.8 8.5 66 3.2 N 35 50 19 27 1012.0 1012.0 0.0
24/01:33am 15.1 6.5 8.8 66 3.2 N 44 65 24 35 1011.6 1011.6 0.0
24/01:30am 15.0 6.4 8.7 66 3.2 N 44 61 24 33 1011.6 1011.6 0.0
24/01:00am 14.9 7.2 8.8 67 3.1 N 39 57 21 31 1012.2 1012.2 0.0
24/12:30am 14.7 6.3 8.9 68 2.9 N 43 63 23 34 1012.6 1012.6 0.0
24/12:04am 14.7 7.1 9.1 69 2.9 N 39 61 21 33 1012.7 1012.7 0.0
24/12:00am 14.6 6.6 9.0 69 2.9 N 41 57 22 31 1012.9 1012.9 0.0
 
Date/Time
EST
Temp
°C
App
Temp
°C
Dew
Point
°C
Rel
Hum
%
Delta-T
°C
Wind Press
QNH
hPa
Press
MSL
hPa
Rain since
9am
mm
Dir  Spd
km/h
Gust
km/h
Spd
kts
Gust
kts
23/11:40pm 14.8 7.2 9.2 69 2.9 N 39 57 21 31 1013.1 1013.1 0.0
23/11:30pm 14.8 7.2 9.2 69 2.9 N 39 54 21 29 1013.2 1013.2 0.0
23/11:03pm 14.6 6.7 9.4 71 2.7 N 41 59 22 32 1013.1 1013.1 0.0
23/11:00pm 14.7 6.4 9.5 71 2.7 N 43 59 23 32 1013.1 1013.1 0.0
23/10:30pm 14.6 6.4 9.8 73 2.5 N 43 61 23 33 1013.2 1013.2 0.0
23/10:27pm 14.5 6.3 9.7 73 2.5 N 43 61 23 33 1013.2 1013.2 0.0
23/10:00pm 14.6 7.6 9.8 73 2.5 NNW 37 54 20 29 1014.1 1014.1 0.0
23/09:30pm 14.7 7.4 10.1 74 2.4 N 39 54 21 29 1014.4 1014.4 0.0
23/09:00pm 14.5 7.9 10.1 75 2.3 N 35 50 19 27 1014.9 1014.9 0.0
23/08:30pm 14.8 8.8 10.2 74 2.4 N 32 44 17 24 1015.1 1015.1 0.0
23/08:00pm 14.8 8.8 10.0 73 2.5 N 32 41 17 22 1015.5 1015.5 0.0
23/07:30pm 14.9 8.8 9.7 71 2.7 N 32 54 17 29 1015.5 1015.5 0.0
23/07:27pm 14.9 8.8 9.7 71 2.7 N 32 54 17 29 1015.5 1015.5 0.0
23/07:00pm 14.9 8.8 9.7 71 2.7 N 32 44 17 24 1015.6 1015.6 0.0
23/06:30pm 14.7 9.4 9.7 72 2.6 NNW 28 39 15 21 1016.0 1016.0 0.0
23/06:00pm 14.6 8.9 9.8 73 2.5 NNW 30 43 16 23 1015.9 1015.9 0.0
23/05:44pm 14.6 8.5 9.8 73 2.5 NNW 32 50 17 27 1015.8 1015.8 0.0
23/05:30pm 14.5 8.2 9.7 73 2.5 N 33 44 18 24 1015.8 1015.8 0.0
23/05:14pm 14.5 8.4 9.7 73 2.5 N 32 50 17 27 1015.8 1015.8 0.0
23/05:00pm 14.4 8.6 9.6 73 2.5 N 30 41 16 22 1016.0 1016.0 0.0
23/04:30pm 14.5 9.1 9.5 72 2.6 N 28 43 15 23 1015.9 1015.9 0.0
23/04:00pm 14.9 9.6 9.7 71 2.7 N 28 35 15 19 1016.2 1016.2 0.0
23/03:30pm 15.4 9.1 9.1 66 3.2 N 32 43 17 23 1016.5 1016.5 0.0
23/03:00pm 15.5 9.3 9.4 67 3.1 N 32 46 17 25 1016.5 1016.5 0.0
23/02:30pm 15.7 9.3 9.4 66 3.3 N 33 44 18 24 1016.8 1016.8 0.0
23/02:00pm 15.8 10.5 9.7 67 3.2 N 28 41 15 22 1017.0 1017.0 0.0
23/01:30pm 15.6 9.7 10.4 71 2.7 N 32 39 17 21 1017.7 1017.7 0.0
23/01:00pm 15.5 9.6 10.5 72 2.6 N 32 44 17 24 1018.2 1018.2 0.0
23/12:30pm 15.7 10.5 10.2 70 2.9 NNW 28 37 15 20 1018.9 1018.9 0.0
23/12:00pm 15.9 12.1 11.1 73 2.6 N 22 33 12 18 1019.6 1019.7 0.0
23/11:30am 15.6 10.9 10.8 73 2.5 N 26 33 14 18 1020.3 1020.4 0.0
23/11:00am 15.4 11.0 10.4 72 2.6 NNW 24 33 13 18 1020.7 1020.8 0.0
23/10:30am 14.9 9.7 10.3 74 2.4 N 28 35 15 19 1020.8 1020.9 0.0
23/10:00am 14.0 9.2 10.2 78 2.0 N 26 35 14 19 1021.0 1021.1 0.0
23/09:30am 13.5 9.0 10.1 80 1.8 N 24 33 13 18 1021.1 1021.2 0.0
23/09:00am 13.1 9.5 9.9 81 1.6 N 19 26 10 14 1021.5 1021.6 0.2
23/08:30am 12.7 9.4 9.7 82 1.5 NNW 17 28 9 15 1021.5 1021.6 0.2
23/08:00am 12.5 8.9 9.7 83 1.4 NNW 19 26 10 14 1021.1 1021.2 0.2
23/07:30am 12.1 8.5 9.7 85 1.2 NNW 19 22 10 12 1021.2 1021.3 0.2
23/07:00am 11.9 8.6 9.6 86 1.2 N 17 22 9 12 1021.3 1021.4 0.2
23/06:30am 11.9 8.0 9.6 86 1.2 N 20 26 11 14 1021.0 1021.1 0.2
23/06:00am 11.9 8.0 9.6 86 1.2 NNW 20 28 11 15 1020.8 1020.9 0.2
23/05:30am 12.2 8.4 9.9 86 1.2 NNW 20 28 11 15 1020.8 1020.9 0.2
23/05:00am 11.8 8.2 9.7 87 1.1 N 19 24 10 13 1020.7 1020.8 0.2
23/04:30am 11.7 8.0 9.6 87 1.1 N 19 22 10 12 1020.9 1021.0 0.2
23/04:00am 12.0 8.4 9.7 86 1.2 N 19 24 10 13 1021.4 1021.5 0.2
23/03:30am 12.2 8.6 9.9 86 1.2 N 19 22 10 12 1021.7 1021.8 0.2
23/03:00am 12.5 8.9 10.0 85 1.3 NNW 19 24 10 13 1021.9 1022.0 0.2
23/02:30am 12.1 9.4 10.2 88 1.0 N 15 20 8 11 1022.2 1022.3 0.2
23/02:00am 12.0 8.8 10.1 88 1.0 NNW 17 24 9 13 1022.5 1022.6 0.2
23/01:30am 11.9 8.7 10.1 89 0.9 N 17 24 9 13 1022.6 1022.7 0.2
23/01:00am 11.7 8.5 10.1 90 0.8 N 17 20 9 11 1022.7 1022.8 0.2
23/12:30am 11.4 8.6 10.1 92 0.7 N 15 19 8 10 1022.8 1022.9 0.2
23/12:05am 11.5 8.9 10.6 94 0.5 N 15 20 8 11 1022.9 1023.0 0.2
23/12:00am 11.6 8.6 10.7 94 0.5 N 17 20 9 11 1022.9 1023.0 0.2
 
Date/Time
EST
Temp
°C
App
Temp
°C
Dew
Point
°C
Rel
Hum
%
Delta-T
°C
Wind Press
QNH
hPa
Press
MSL
hPa
Rain since
9am
mm
Dir  Spd
km/h
Gust
km/h
Spd
kts
Gust
kts
22/11:35pm 11.7 8.6 10.3 91 0.7 N 17 24 9 13 1023.0 1023.1 0.0

Latest Capital City Observations: Canberra | Sydney | Melbourne | Brisbane | Adelaide | Perth | Hobart | Darwin

Other formats

Comma delimited format used in spreadsheet applications
http://www.bom.gov.au/fwo/IDV60901/IDV60901.94870.axf

JavaScript Object Notation format (JSON) in row-major order
http://www.bom.gov.au/fwo/IDV60901/IDV60901.94870.json

Data quality

Most of these data are generated automatically and are frequently updated. Quality checks on data are not normally performed. It is possible for incorrect values to appear. Refer to information at About Latest Weather Observations and please check the disclaimer before using these data.